Overview Statistics Trail Chart Weather Telemetry Raw packets
 

This is the latest recevied weather packets stored in our database for station/object 9W2CHF-3. If no packets are shown the sender has not sent any weather packets the latest 10 day(s).

<< 1 2 3 4 5 6 >>
Time Temp. Humidity Pressure Rain* Wind** Luminosity Snow
1777716414 36.67° C 54% 1007.1 hPa - - - -
1777715214 37.78° C 53% 1006.9 hPa - - - -
1777714014 37.78° C 52% 1007.2 hPa - - - -
1777712814 38.33° C 53% 1007.3 hPa - - - -
1777711614 39.44° C 47% 1007.4 hPa - - - -
1777710414 40° C 47% 1007.5 hPa - - - -
1777709214 40.56° C 45% 1007.8 hPa - - - -
1777708013 40.56° C 45% 1007.9 hPa - - - -
1777706813 40° C 47% 1008.1 hPa - - - -
1777705613 40° C 47% 1008.2 hPa - - - -
1777704413 40° C 48% 1008.7 hPa - - - -
1777703214 40° C 48% 1008.9 hPa - - - -
1777702014 38.89° C 49% 1009.3 hPa - - - -
1777700814 40.56° C 47% 1009.8 hPa - - - -
1777700124 40.56° C 47% 1010.1 hPa - - - -
1777698414 40° C 48% 1010.5 hPa - - - -
1777697214 38.89° C 52% 1010.9 hPa - - - -
1777696028 38.89° C 54% 1011.3 hPa - - - -
1777694814 37.78° C 56% 1011.5 hPa - - - -
1777693613 37.78° C 57% 1011.8 hPa - - - -
1777692413 38.33° C 54% 1011.8 hPa - - - -
1777691370 37.22° C 58% 1011.7 hPa - - - -
1777690013 37.78° C 59% 1011.7 hPa - - - -
1777689336 37.78° C 60% 1011.8 hPa - - - -
1777689336 37.78° C 57% 1011.7 hPa - - - -

* Rain since midnight (hover to see other rain measurements)
** Current wind speed in m/s (hover to see current wind gust speed)